createdAt,value
2022-11-28T00:01:10.308Z,9.43
2022-11-28T00:04:14.807Z,9.56
2022-11-28T00:07:20.248Z,9.55
2022-11-28T00:10:24.400Z,9.67
2022-11-28T00:13:28.331Z,9.76
2022-11-28T00:16:32.369Z,9.24
2022-11-28T00:19:36.521Z,9.30
2022-11-28T00:22:41.772Z,9.56
2022-11-28T00:25:45.641Z,9.17
2022-11-28T00:28:49.749Z,9.40
2022-11-28T00:31:53.508Z,9.47
2022-11-28T00:34:57.308Z,9.61
2022-11-28T00:38:02.343Z,9.50
2022-11-28T00:41:08.018Z,9.47
2022-11-28T00:44:11.875Z,9.53
2022-11-28T00:47:15.778Z,9.47
2022-11-28T00:50:19.702Z,9.39
2022-11-28T00:53:24.644Z,9.57
2022-11-28T00:56:31.107Z,9.50
2022-11-28T00:59:34.612Z,9.50
2022-11-28T01:02:38.320Z,9.44
2022-11-28T01:05:43.490Z,9.45
2022-11-28T01:08:48.611Z,9.32
2022-11-28T01:11:54.334Z,9.29
2022-11-28T01:14:58.655Z,8.94
2022-11-28T01:18:02.977Z,9.21
2022-11-28T01:21:07.208Z,9.27
2022-11-28T01:24:12.941Z,8.96
2022-11-28T01:27:16.722Z,9.07
2022-11-28T01:30:20.780Z,9.02
2022-11-28T01:33:24.467Z,9.21
2022-11-28T01:36:28.850Z,9.24
2022-11-28T01:39:34.067Z,9.22
2022-11-28T01:42:37.897Z,9.30
2022-11-28T01:45:41.567Z,9.23
2022-11-28T01:48:45.149Z,8.88
2022-11-28T01:51:52.168Z,9.06
2022-11-28T01:55:01.560Z,8.73
2022-11-28T01:58:06.066Z,8.81
2022-11-28T02:01:10.872Z,9.01
2022-11-28T02:04:15.441Z,9.02
2022-11-28T02:07:20.122Z,8.99
2022-11-28T02:10:29.085Z,8.77
2022-11-28T02:13:42.191Z,8.95
2022-11-28T02:16:56.867Z,9.03
2022-11-28T02:20:33.588Z,8.92
2022-11-28T02:24:04.146Z,8.90
2022-11-28T02:27:42.872Z,8.78
2022-11-28T02:30:59.849Z,8.79
2022-11-28T02:34:09.267Z,8.83
2022-11-28T02:37:22.631Z,8.82
2022-11-28T02:40:29.736Z,9.02
2022-11-28T02:43:42.033Z,8.67
2022-11-28T02:46:54.050Z,8.80
2022-11-28T02:50:07.621Z,8.78
2022-11-28T02:53:15.563Z,8.70
2022-11-28T02:56:19.532Z,8.86
2022-11-28T02:59:46.327Z,8.81
2022-11-28T03:02:54.505Z,8.74
2022-11-28T03:06:07.247Z,8.79
2022-11-28T03:09:33.420Z,8.72
2022-11-28T03:12:50.865Z,8.81
2022-11-28T03:16:02.989Z,8.74
2022-11-28T03:19:15.994Z,8.53
2022-11-28T03:22:33.417Z,8.62
2022-11-28T03:25:43.080Z,8.60
2022-11-28T03:28:53.183Z,8.60
2022-11-28T03:32:01.908Z,8.66
2022-11-28T03:35:10.029Z,8.93
2022-11-28T03:38:22.551Z,9.06
2022-11-28T03:41:30.977Z,8.99
2022-11-28T03:44:41.877Z,8.74
2022-11-28T03:47:49.280Z,8.74
2022-11-28T03:50:59.885Z,8.61
2022-11-28T03:54:09.916Z,8.76
2022-11-28T03:57:21.889Z,8.86
2022-11-28T04:00:26.121Z,9.01
2022-11-28T04:03:40.358Z,9.04
2022-11-28T04:06:54.847Z,8.94
2022-11-28T04:10:04.363Z,8.86
2022-11-28T04:13:17.507Z,8.85
2022-11-28T04:16:27.031Z,8.98
2022-11-28T04:19:36.613Z,9.04
2022-11-28T04:22:46.128Z,9.01
2022-11-28T04:25:54.441Z,8.90
2022-11-28T04:29:01.101Z,8.86
2022-11-28T04:32:07.567Z,8.61
2022-11-28T04:35:16.477Z,8.97
2022-11-28T04:38:21.223Z,9.03
2022-11-28T04:41:31.332Z,9.14
2022-11-28T04:44:39.476Z,8.98
2022-11-28T04:47:44.762Z,9.02
2022-11-28T04:50:54.624Z,9.16
2022-11-28T04:54:03.937Z,9.28
2022-11-28T04:57:16.283Z,9.18
2022-11-28T05:00:22.057Z,8.98
2022-11-28T05:03:29.290Z,9.16
2022-11-28T05:06:35.078Z,9.37
2022-11-28T05:09:38.958Z,9.48
2022-11-28T05:12:44.336Z,9.24
2022-11-28T05:15:48.239Z,9.39
2022-11-28T05:18:52.350Z,9.54
2022-11-28T05:21:56.071Z,9.57
2022-11-28T05:25:00.518Z,9.47
2022-11-28T05:28:05.983Z,9.47
2022-11-28T05:31:09.653Z,9.44
2022-11-28T05:34:13.301Z,9.46
2022-11-28T05:37:17.701Z,9.51
2022-11-28T05:40:21.519Z,9.56
2022-11-28T05:43:26.906Z,9.46
2022-11-28T05:46:31.387Z,9.39
2022-11-28T05:49:35.365Z,9.35
2022-11-28T05:52:39.109Z,9.49
2022-11-28T05:55:42.948Z,9.37
2022-11-28T05:58:48.121Z,9.07
2022-11-28T06:01:51.893Z,9.08
2022-11-28T06:04:55.596Z,9.00
2022-11-28T06:07:59.445Z,9.04
2022-11-28T06:11:03.307Z,9.07
2022-11-28T06:14:08.397Z,9.20
2022-11-28T06:17:12.177Z,9.17
2022-11-28T06:20:16.061Z,9.03
2022-11-28T06:23:19.887Z,8.71
2022-11-28T06:26:25.098Z,8.94
2022-11-28T06:29:30.273Z,8.96
2022-11-28T06:32:34.306Z,8.44
2022-11-28T06:35:38.070Z,8.54
2022-11-28T06:38:42.378Z,8.69
2022-11-28T06:41:46.550Z,8.51
2022-11-28T06:44:51.901Z,8.69
2022-11-28T06:47:55.480Z,8.41
2022-11-28T06:51:04.467Z,8.57
2022-11-28T06:54:08.411Z,8.10
2022-11-28T06:57:12.520Z,8.60
2022-11-28T07:00:18.783Z,8.38
2022-11-28T07:03:22.621Z,8.76
2022-11-28T07:06:28.308Z,8.72
2022-11-28T07:09:32.148Z,8.81
2022-11-28T07:12:35.860Z,8.67
2022-11-28T07:15:41.053Z,8.74
2022-11-28T07:18:45.099Z,8.59
2022-11-28T07:21:49.208Z,8.40
2022-11-28T07:24:52.988Z,8.28
2022-11-28T07:27:56.668Z,8.18
2022-11-28T07:31:04.339Z,7.87
2022-11-28T07:34:08.211Z,7.68
2022-11-28T07:37:11.962Z,7.78
2022-11-28T07:40:18.720Z,8.16
2022-11-28T07:43:22.435Z,8.27
2022-11-28T07:46:29.037Z,8.26
2022-11-28T07:49:32.950Z,8.13
2022-11-28T07:52:36.657Z,8.19
2022-11-28T07:55:40.431Z,8.22
2022-11-28T07:58:45.570Z,7.88
2022-11-28T08:01:50.888Z,8.35
2022-11-28T08:04:55.985Z,8.58
2022-11-28T08:07:59.831Z,8.52
2022-11-28T08:11:06.758Z,8.27
2022-11-28T08:14:10.728Z,8.30
2022-11-28T08:17:15.951Z,8.40
2022-11-28T08:20:19.823Z,8.33
2022-11-28T08:23:23.663Z,8.26
2022-11-28T08:26:30.639Z,8.29
2022-11-28T08:29:34.861Z,8.27
2022-11-28T08:32:42.321Z,8.36
2022-11-28T08:35:45.998Z,8.00
2022-11-28T08:39:09.413Z,8.16
2022-11-28T08:42:14.389Z,8.16
2022-11-28T08:45:20.742Z,7.79
2022-11-28T08:48:26.219Z,8.07
2022-11-28T08:51:31.171Z,8.06
2022-11-28T08:54:34.981Z,8.05
2022-11-28T08:57:44.211Z,8.38
2022-11-28T09:00:54.130Z,8.20
2022-11-28T09:03:59.494Z,7.90
2022-11-28T09:07:03.427Z,8.34
2022-11-28T09:10:08.548Z,8.44
2022-11-28T09:13:14.680Z,8.66
2022-11-28T09:16:18.687Z,8.30
2022-11-28T09:19:24.117Z,8.61
2022-11-28T09:22:30.147Z,8.52
2022-11-28T09:25:36.757Z,8.39
2022-11-28T09:28:40.881Z,8.06
2022-11-28T09:31:47.477Z,8.40
2022-11-28T09:34:52.831Z,8.23
2022-11-28T09:37:56.612Z,8.30
2022-11-28T09:41:00.457Z,8.02
2022-11-28T09:44:11.798Z,8.08
2022-11-28T09:47:21.610Z,8.39
2022-11-28T09:50:29.688Z,8.37
2022-11-28T09:53:42.236Z,8.44
2022-11-28T09:56:48.282Z,8.42
2022-11-28T09:59:52.021Z,8.40
2022-11-28T10:03:20.692Z,8.85
2022-11-28T10:06:32.721Z,8.84
2022-11-28T10:09:44.943Z,8.53
2022-11-28T10:12:58.629Z,8.76
2022-11-28T10:16:10.440Z,8.34
2022-11-28T10:19:46.105Z,8.47
2022-11-28T10:22:47.838Z,8.79
2022-11-28T10:25:55.481Z,9.31
2022-11-28T10:29:03.272Z,9.24
2022-11-28T10:32:08.042Z,9.19
2022-11-28T10:35:28.340Z,9.09
2022-11-28T10:38:37.463Z,9.23
2022-11-28T10:42:08.682Z,9.27
2022-11-28T10:45:23.628Z,9.10
2022-11-28T10:48:42.455Z,9.47
2022-11-28T10:51:55.286Z,9.46
2022-11-28T10:55:22.781Z,9.00
2022-11-28T10:58:33.526Z,8.83
2022-11-28T11:01:40.162Z,8.79
2022-11-28T11:04:44.103Z,8.87
2022-11-28T11:07:52.166Z,9.20
2022-11-28T11:11:03.433Z,9.20
2022-11-28T11:14:09.331Z,9.33
2022-11-28T11:17:32.616Z,9.29
2022-11-28T11:20:40.732Z,9.19
2022-11-28T11:23:44.993Z,9.41
2022-11-28T11:26:51.215Z,9.32
2022-11-28T11:29:55.707Z,9.46
2022-11-28T11:33:02.275Z,9.56
2022-11-28T11:36:26.498Z,9.74
2022-11-28T11:39:30.312Z,9.71
2022-11-28T11:42:35.488Z,9.78
2022-11-28T11:45:39.890Z,9.88
2022-11-28T11:48:45.728Z,9.58
2022-11-28T11:51:58.061Z,9.75
2022-11-28T11:55:05.501Z,9.68
2022-11-28T11:58:13.657Z,9.87
2022-11-28T12:01:24.197Z,9.97
2022-11-28T12:04:52.629Z,9.97
2022-11-28T12:08:01.441Z,9.76
2022-11-28T12:11:16.880Z,9.49
2022-11-28T12:14:33.019Z,8.99
2022-11-28T12:17:51.460Z,9.50
2022-11-28T12:21:15.263Z,9.38
2022-11-28T12:24:29.990Z,9.62
2022-11-28T12:27:52.782Z,9.49
2022-11-28T12:31:13.507Z,9.38
2022-11-28T12:34:30.011Z,9.32
2022-11-28T12:38:10.351Z,8.80
2022-11-28T12:41:32.646Z,9.11
2022-11-28T12:44:51.901Z,9.11
2022-11-28T12:48:09.511Z,9.21
2022-11-28T12:51:24.349Z,9.04
2022-11-28T12:54:50.368Z,8.94
2022-11-28T12:58:05.452Z,9.00
2022-11-28T13:01:32.551Z,9.17
2022-11-28T13:05:12.684Z,8.65
2022-11-28T13:08:31.464Z,8.85
2022-11-28T13:11:51.242Z,8.52
2022-11-28T13:14:59.130Z,8.87
2022-11-28T13:18:12.861Z,8.88
2022-11-28T13:21:29.312Z,8.92
2022-11-28T13:24:39.748Z,8.85
2022-11-28T13:27:50.675Z,8.71
2022-11-28T13:30:59.052Z,8.96
2022-11-28T13:34:03.182Z,9.05
2022-11-28T13:40:43.144Z,9.02
2022-11-28T13:43:53.877Z,9.25
2022-11-28T13:46:57.696Z,8.91
2022-11-28T13:50:39.051Z,8.99
2022-11-28T13:53:45.659Z,9.11
2022-11-28T13:57:06.563Z,8.78
2022-11-28T14:00:23.930Z,8.89
2022-11-28T14:03:28.006Z,9.16
2022-11-28T14:06:46.083Z,9.22
2022-11-28T14:10:02.409Z,9.29
2022-11-28T14:13:32.157Z,9.07
2022-11-28T14:16:52.186Z,9.26
2022-11-28T14:20:12.386Z,9.32
2022-11-28T14:23:27.887Z,9.29
2022-11-28T14:26:35.790Z,9.35
2022-11-28T14:29:43.921Z,9.18
2022-11-28T14:32:48.607Z,9.25
2022-11-28T14:36:35.077Z,8.99
2022-11-28T14:39:41.131Z,8.98
2022-11-28T14:43:02.023Z,8.91
2022-11-28T14:46:28.472Z,8.95
2022-11-28T14:49:32.522Z,8.95
2022-11-28T14:52:40.736Z,8.98
2022-11-28T14:55:46.277Z,9.02
2022-11-28T14:58:53.743Z,9.08
2022-11-28T15:02:07.503Z,8.89
2022-11-28T15:05:40.433Z,9.04
2022-11-28T15:08:58.010Z,9.03
2022-11-28T15:12:12.341Z,9.11
2022-11-28T15:15:19.467Z,9.06
2022-11-28T15:18:26.608Z,9.07
2022-11-28T15:21:33.422Z,9.13
2022-11-28T15:24:39.501Z,9.17
2022-11-28T15:27:43.251Z,9.23
2022-11-28T15:30:51.664Z,9.22
2022-11-28T15:33:55.488Z,9.24
2022-11-28T15:37:02.008Z,9.27
2022-11-28T15:40:08.110Z,9.30
2022-11-28T15:43:15.741Z,9.24
2022-11-28T15:46:25.476Z,9.14
2022-11-28T15:49:32.362Z,9.03
2022-11-28T15:52:36.486Z,9.06
2022-11-28T15:55:40.317Z,9.12
2022-11-28T15:58:47.911Z,9.01
2022-11-28T16:01:59.188Z,9.05
2022-11-28T16:05:09.067Z,9.05
2022-11-28T16:08:23.849Z,9.11
2022-11-28T16:11:30.858Z,9.13
2022-11-28T16:14:37.360Z,9.21
2022-11-28T16:17:43.103Z,9.13
2022-11-28T16:20:47.837Z,9.01
2022-11-28T16:23:51.577Z,9.01
2022-11-28T16:26:58.747Z,9.02
2022-11-28T16:30:03.442Z,9.10
2022-11-28T16:33:42.382Z,9.16
2022-11-28T16:36:49.586Z,9.13
2022-11-28T16:40:09.010Z,8.82
2022-11-28T16:43:22.730Z,9.07
2022-11-28T16:46:28.695Z,8.90
2022-11-28T16:49:37.208Z,8.94
2022-11-28T16:52:47.107Z,9.05
2022-11-28T16:55:51.175Z,9.04
2022-11-28T16:58:56.921Z,9.10
2022-11-28T17:02:00.649Z,9.14
2022-11-28T17:05:06.229Z,9.16
2022-11-28T17:08:10.040Z,9.10
2022-11-28T17:11:15.637Z,9.07
2022-11-28T17:14:19.400Z,9.22
2022-11-28T17:17:24.670Z,9.09
2022-11-28T17:20:29.918Z,9.19
2022-11-28T17:23:33.676Z,9.14
2022-11-28T17:26:37.349Z,9.09
2022-11-28T17:29:41.698Z,9.04
2022-11-28T17:32:47.357Z,9.10
2022-11-28T17:35:54.827Z,9.20
2022-11-28T17:39:03.736Z,9.14
2022-11-28T17:42:09.019Z,9.06
2022-11-28T17:45:16.454Z,9.10
2022-11-28T17:48:20.576Z,9.05
2022-11-28T17:51:26.344Z,8.85
2022-11-28T17:54:30.051Z,8.84
2022-11-28T17:57:34.216Z,8.83
2022-11-28T18:00:38.151Z,8.86
2022-11-28T18:03:42.400Z,8.84
2022-11-28T18:06:48.882Z,8.78
2022-11-28T18:09:53.130Z,9.03
2022-11-28T18:12:56.947Z,8.97
2022-11-28T18:16:02.980Z,8.81
2022-11-28T18:19:07.540Z,8.92
2022-11-28T18:22:12.716Z,9.02
2022-11-28T18:25:16.587Z,9.15
2022-11-28T18:28:21.307Z,8.77
2022-11-28T18:31:27.452Z,8.93
2022-11-28T18:34:31.368Z,8.94
2022-11-28T18:37:37.356Z,8.80
2022-11-28T18:40:41.400Z,8.63
2022-11-28T18:43:45.488Z,8.83
2022-11-28T18:46:49.550Z,8.61
2022-11-28T18:49:53.351Z,8.38
2022-11-28T18:52:58.513Z,7.97
2022-11-28T18:56:04.130Z,8.30
2022-11-28T18:59:07.988Z,8.63
2022-11-28T19:02:16.705Z,8.62
2022-11-28T19:05:20.708Z,8.84
2022-11-28T19:08:26.170Z,8.75
2022-11-28T19:11:30.822Z,8.79
2022-11-28T19:14:34.530Z,8.86
2022-11-28T19:17:38.786Z,8.93
2022-11-28T19:20:43.731Z,8.58
2022-11-28T19:23:49.167Z,8.66
2022-11-28T19:26:53.001Z,8.63
2022-11-28T19:29:56.669Z,8.64
2022-11-28T19:33:00.560Z,8.95
2022-11-28T19:36:04.730Z,8.99
2022-11-28T19:39:10.097Z,8.98
2022-11-28T19:42:13.915Z,8.84
2022-11-28T19:45:17.801Z,9.00
2022-11-28T19:48:21.521Z,8.76
2022-11-28T19:51:25.297Z,8.56
2022-11-28T19:54:30.620Z,8.64
2022-11-28T19:57:37.418Z,8.44
2022-11-28T20:00:41.529Z,8.49
2022-11-28T20:03:48.056Z,8.51
2022-11-28T20:06:51.807Z,8.43
2022-11-28T20:09:57.075Z,8.44
2022-11-28T20:13:00.836Z,8.56
2022-11-28T20:16:06.385Z,8.44
2022-11-28T20:19:11.433Z,8.30
2022-11-28T20:22:15.556Z,8.02
2022-11-28T20:25:21.218Z,8.28
2022-11-28T20:28:27.231Z,8.41
2022-11-28T20:31:34.036Z,8.24
2022-11-28T20:34:37.799Z,8.45
2022-11-28T20:37:41.620Z,8.46
2022-11-28T20:40:46.669Z,8.59
2022-11-28T20:43:50.587Z,8.13
2022-11-28T20:46:54.548Z,8.23
2022-11-28T20:49:58.276Z,8.40
2022-11-28T20:53:02.056Z,8.55
2022-11-28T20:56:10.299Z,8.58
2022-11-28T20:59:16.500Z,8.36
2022-11-28T21:02:20.317Z,8.53
2022-11-28T21:05:24.055Z,8.44
2022-11-28T21:08:30.562Z,8.39
2022-11-28T21:11:57.611Z,8.43
2022-11-28T21:14:59.549Z,8.59
2022-11-28T21:18:03.958Z,8.69
2022-11-28T21:21:09.676Z,8.60
2022-11-28T21:24:14.789Z,8.46
2022-11-28T21:27:19.956Z,8.46
2022-11-28T21:30:23.689Z,8.58
2022-11-28T21:33:27.373Z,8.74
2022-11-28T21:36:32.027Z,8.62
2022-11-28T21:39:35.876Z,8.70
2022-11-28T21:42:44.975Z,8.56
2022-11-28T21:45:48.765Z,8.59
2022-11-28T21:48:52.617Z,8.57
2022-11-28T21:51:56.470Z,8.57
2022-11-28T21:55:01.213Z,8.73
2022-11-28T21:58:07.045Z,8.78
2022-11-28T22:01:12.707Z,8.77
2022-11-28T22:04:16.531Z,8.68
2022-11-28T22:07:20.449Z,8.60
2022-11-28T22:10:24.447Z,8.47
2022-11-28T22:13:29.912Z,8.62
2022-11-28T22:16:33.892Z,8.62
2022-11-28T22:19:37.635Z,8.65
2022-11-28T22:22:41.456Z,8.67
2022-11-28T22:25:52.500Z,8.33
2022-11-28T22:28:58.996Z,8.49
2022-11-28T22:32:02.967Z,8.54
2022-11-28T22:35:09.390Z,8.63
2022-11-28T22:38:13.225Z,8.51
2022-11-28T22:41:26.406Z,8.64
2022-11-28T22:44:34.118Z,8.52
2022-11-28T22:47:38.479Z,8.75
2022-11-28T22:50:42.206Z,8.80
2022-11-28T22:53:46.249Z,8.81
2022-11-28T22:56:50.670Z,8.75
2022-11-28T22:59:56.267Z,8.34
2022-11-28T23:03:00.479Z,8.60
2022-11-28T23:06:06.810Z,8.71
2022-11-28T23:09:11.617Z,8.88
2022-11-28T23:12:15.859Z,8.83
2022-11-28T23:15:21.223Z,8.92
2022-11-28T23:18:24.924Z,8.97
2022-11-28T23:21:32.485Z,8.92
2022-11-28T23:24:36.284Z,8.82
2022-11-28T23:27:40.114Z,8.75
2022-11-28T23:30:46.606Z,8.76
2022-11-28T23:33:50.584Z,8.70
2022-11-28T23:36:54.957Z,8.67
2022-11-28T23:39:58.696Z,8.83
2022-11-28T23:43:02.337Z,8.90
2022-11-28T23:46:09.095Z,8.72
2022-11-28T23:49:13.598Z,8.65
2022-11-28T23:52:17.397Z,8.71
2022-11-28T23:55:21.096Z,8.23
2022-11-28T23:58:24.790Z,8.41
